createdAt,value
2018-07-15T00:00:35.192Z,19.46
2018-07-15T00:01:35.228Z,19.44
2018-07-15T00:02:35.267Z,19.44
2018-07-15T00:03:35.301Z,19.41
2018-07-15T00:04:35.338Z,19.41
2018-07-15T00:05:35.373Z,19.55
2018-07-15T00:06:35.409Z,19.56
2018-07-15T00:07:35.444Z,19.54
2018-07-15T00:08:35.482Z,19.54
2018-07-15T00:09:35.517Z,19.58
2018-07-15T00:10:35.555Z,19.62
2018-07-15T00:11:35.591Z,19.59
2018-07-15T00:12:35.628Z,19.61
2018-07-15T00:13:35.662Z,19.58
2018-07-15T00:14:35.699Z,19.59
2018-07-15T00:15:35.736Z,19.69
2018-07-15T00:16:35.772Z,19.62
2018-07-15T00:17:35.807Z,19.54
2018-07-15T00:18:35.844Z,19.41
2018-07-15T00:19:35.880Z,19.37
2018-07-15T00:20:35.917Z,19.40
2018-07-15T00:21:35.952Z,19.23
2018-07-15T00:22:35.992Z,19.08
2018-07-15T00:23:36.025Z,19.07
2018-07-15T00:24:36.062Z,19.02
2018-07-15T00:25:36.098Z,19.07
2018-07-15T00:26:36.135Z,19.04
2018-07-15T00:27:36.170Z,19.00
2018-07-15T00:28:36.205Z,19.08
2018-07-15T00:29:36.241Z,19.16
2018-07-15T00:30:36.277Z,19.13
2018-07-15T00:31:36.314Z,19.21
2018-07-15T00:32:36.348Z,19.26
2018-07-15T00:33:36.385Z,19.26
2018-07-15T00:34:36.428Z,19.43
2018-07-15T00:35:36.459Z,19.43
2018-07-15T00:36:36.496Z,19.47
2018-07-15T00:37:36.530Z,19.46
2018-07-15T00:38:36.565Z,19.41
2018-07-15T00:39:36.602Z,19.41
2018-07-15T00:40:36.638Z,19.41
2018-07-15T00:41:36.674Z,19.33
2018-07-15T00:42:36.709Z,19.32
2018-07-15T00:43:36.746Z,19.32
2018-07-15T00:44:36.782Z,19.37
2018-07-15T00:45:36.818Z,19.23
2018-07-15T00:46:36.854Z,19.22
2018-07-15T00:47:36.890Z,19.14
2018-07-15T00:48:36.928Z,19.13
2018-07-15T00:49:36.961Z,19.06
2018-07-15T00:50:37.001Z,19.04
2018-07-15T00:51:37.033Z,19.16
2018-07-15T00:53:24.632Z,19.11
2018-07-15T00:54:24.679Z,19.26
2018-07-15T00:55:24.720Z,19.13
2018-07-15T00:56:24.740Z,19.21
2018-07-15T00:57:24.780Z,19.23
2018-07-15T00:58:24.812Z,19.31
2018-07-15T00:59:24.847Z,19.28
2018-07-15T01:00:24.883Z,19.23
2018-07-15T01:01:24.920Z,19.31
2018-07-15T01:02:24.956Z,19.16
2018-07-15T01:03:24.991Z,19.04
2018-07-15T01:04:25.031Z,19.13
2018-07-15T01:05:25.064Z,19.04
2018-07-15T01:06:25.099Z,19.06
2018-07-15T01:07:25.135Z,19.16
2018-07-15T01:08:25.170Z,19.10
2018-07-15T01:09:25.219Z,19.08
2018-07-15T01:10:28.067Z,19.02
2018-07-15T01:11:25.277Z,19.08
2018-07-15T01:12:25.313Z,19.07
2018-07-15T01:13:25.350Z,19.00
2018-07-15T01:14:25.388Z,18.85
2018-07-15T01:15:25.420Z,18.78
2018-07-15T01:16:25.456Z,18.69
2018-07-15T01:17:25.491Z,18.65
2018-07-15T01:18:25.528Z,18.50
2018-07-15T01:19:25.565Z,18.36
2018-07-15T01:20:25.598Z,18.29
2018-07-15T01:21:25.636Z,18.33
2018-07-15T01:22:25.673Z,18.27
2018-07-15T01:23:25.705Z,18.30
2018-07-15T01:24:25.746Z,18.35
2018-07-15T01:25:25.779Z,18.30
2018-07-15T01:26:25.813Z,18.39
2018-07-15T01:27:25.849Z,18.37
2018-07-15T01:28:25.884Z,18.50
2018-07-15T01:29:25.921Z,18.55
2018-07-15T01:30:25.956Z,18.48
2018-07-15T01:31:25.991Z,18.67
2018-07-15T01:32:26.028Z,18.67
2018-07-15T01:33:26.064Z,18.66
2018-07-15T01:34:26.102Z,18.69
2018-07-15T01:35:26.135Z,18.80
2018-07-15T01:36:26.172Z,18.75
2018-07-15T01:37:26.206Z,18.82
2018-07-15T01:38:26.244Z,18.90
2018-07-15T01:39:26.276Z,18.85
2018-07-15T01:40:26.314Z,18.82
2018-07-15T01:41:26.348Z,18.87
2018-07-15T01:42:26.389Z,18.85
2018-07-15T01:43:26.419Z,18.90
2018-07-15T01:44:26.454Z,18.88
2018-07-15T01:45:26.490Z,18.92
2018-07-15T01:46:26.527Z,18.80
2018-07-15T01:47:26.563Z,18.75
2018-07-15T01:48:26.598Z,18.75
2018-07-15T01:49:26.633Z,18.80
2018-07-15T01:50:26.669Z,18.78
2018-07-15T01:51:26.704Z,18.80
2018-07-15T01:52:26.740Z,18.84
2018-07-15T01:53:26.776Z,18.76
2018-07-15T01:54:26.811Z,18.70
2018-07-15T01:55:26.847Z,18.54
2018-07-15T01:56:26.881Z,18.52
2018-07-15T01:57:26.919Z,18.52
2018-07-15T01:58:26.954Z,18.63
2018-07-15T01:59:26.988Z,18.52
2018-07-15T02:00:27.024Z,18.63
2018-07-15T02:01:27.060Z,18.72
2018-07-15T02:02:27.096Z,18.67
2018-07-15T02:03:27.135Z,18.62
2018-07-15T02:04:27.165Z,18.70
2018-07-15T02:05:27.202Z,18.63
2018-07-15T02:06:27.238Z,18.60
2018-07-15T02:07:27.273Z,18.73
2018-07-15T02:08:27.309Z,18.78
2018-07-15T02:09:27.344Z,18.80
2018-07-15T02:10:27.378Z,18.84
2018-07-15T02:11:27.415Z,18.81
2018-07-15T02:12:27.452Z,18.84
2018-07-15T02:13:27.485Z,18.84
2018-07-15T02:14:27.521Z,18.85
2018-07-15T02:15:27.556Z,18.88
2018-07-15T02:17:10.161Z,18.85
2018-07-15T02:18:10.177Z,18.82
2018-07-15T02:19:10.213Z,18.63
2018-07-15T02:20:10.248Z,18.65
2018-07-15T02:21:10.284Z,18.70
2018-07-15T02:22:10.320Z,18.70
2018-07-15T02:23:10.359Z,18.78
2018-07-15T02:25:23.014Z,18.75
2018-07-15T02:26:23.050Z,18.70
2018-07-15T02:27:23.084Z,18.62
2018-07-15T02:28:23.120Z,18.60
2018-07-15T02:29:23.156Z,18.52
2018-07-15T02:30:23.192Z,18.58
2018-07-15T02:31:23.227Z,18.60
2018-07-15T02:32:23.263Z,18.60
2018-07-15T02:33:23.298Z,18.58
2018-07-15T02:34:23.334Z,18.52
2018-07-15T02:35:23.369Z,18.50
2018-07-15T02:36:23.404Z,18.41
2018-07-15T02:37:23.442Z,18.41
2018-07-15T02:38:23.477Z,18.42
2018-07-15T02:39:23.512Z,18.37
2018-07-15T02:40:23.549Z,18.39
2018-07-15T02:41:23.583Z,18.42
2018-07-15T02:42:23.619Z,18.35
2018-07-15T02:43:23.654Z,18.26
2018-07-15T02:44:23.689Z,18.26
2018-07-15T02:45:23.727Z,18.33
2018-07-15T02:46:23.761Z,18.30
2018-07-15T02:47:23.796Z,18.25
2018-07-15T02:48:23.832Z,18.30
2018-07-15T02:49:23.871Z,18.29
2018-07-15T02:50:23.911Z,18.33
2018-07-15T02:52:06.492Z,18.32
2018-07-15T02:53:06.524Z,18.32
2018-07-15T02:54:06.560Z,18.41
2018-07-15T02:55:06.594Z,18.35
2018-07-15T02:56:06.629Z,18.33
2018-07-15T02:57:06.665Z,18.33
2018-07-15T02:58:06.702Z,18.39
2018-07-15T02:59:06.736Z,18.39
2018-07-15T03:00:06.773Z,18.27
2018-07-15T03:01:06.809Z,18.11
2018-07-15T03:02:06.844Z,18.12
2018-07-15T03:03:06.879Z,17.96
2018-07-15T03:04:06.916Z,18.10
2018-07-15T03:05:06.951Z,18.14
2018-07-15T03:06:06.987Z,18.07
2018-07-15T03:07:07.023Z,17.96
2018-07-15T03:08:07.057Z,18.02
2018-07-15T03:09:07.093Z,18.02
2018-07-15T03:10:07.142Z,18.10
2018-07-15T03:11:07.164Z,18.12
2018-07-15T03:12:07.204Z,18.12
2018-07-15T03:13:07.236Z,18.21
2018-07-15T03:14:07.272Z,18.15
2018-07-15T03:15:07.307Z,18.11
2018-07-15T03:16:07.343Z,18.23
2018-07-15T03:17:07.409Z,18.30
2018-07-15T03:18:07.415Z,18.26
2018-07-15T03:19:07.449Z,18.29
2018-07-15T03:20:07.486Z,18.37
2018-07-15T03:21:07.528Z,18.39
2018-07-15T03:22:07.559Z,18.36
2018-07-15T03:23:07.592Z,18.29
2018-07-15T03:24:07.627Z,18.30
2018-07-15T03:25:07.663Z,18.21
2018-07-15T03:26:07.707Z,18.20
2018-07-15T03:27:07.733Z,18.05
2018-07-15T03:28:07.769Z,18.07
2018-07-15T03:29:07.806Z,18.05
2018-07-15T03:30:07.841Z,18.10
2018-07-15T03:31:07.877Z,18.20
2018-07-15T03:32:07.912Z,18.14
2018-07-15T03:33:07.945Z,18.18
2018-07-15T03:34:08.033Z,18.18
2018-07-15T03:35:08.017Z,18.30
2018-07-15T03:36:08.053Z,18.26
2018-07-15T03:37:08.089Z,18.18
2018-07-15T03:38:08.126Z,18.20
2018-07-15T03:39:08.164Z,18.21
2018-07-15T03:40:08.195Z,18.18
2018-07-15T03:41:08.231Z,18.10
2018-07-15T03:42:08.265Z,18.08
2018-07-15T03:43:08.301Z,18.10
2018-07-15T03:44:08.337Z,17.97
2018-07-15T03:45:08.373Z,18.10
2018-07-15T03:46:08.409Z,18.11
2018-07-15T03:47:08.443Z,18.08
2018-07-15T03:48:08.479Z,18.05
2018-07-15T03:49:08.514Z,18.05
2018-07-15T03:50:08.549Z,18.11
2018-07-15T03:51:08.585Z,18.11
2018-07-15T03:52:08.622Z,18.29
2018-07-15T03:53:08.660Z,18.35
2018-07-15T03:54:08.693Z,18.23
2018-07-15T03:55:08.727Z,18.32
2018-07-15T03:56:08.763Z,18.37
2018-07-15T03:57:08.798Z,18.44
2018-07-15T03:58:08.835Z,18.36
2018-07-15T03:59:08.869Z,18.36
2018-07-15T04:00:08.905Z,18.39
2018-07-15T04:01:08.950Z,18.37
2018-07-15T04:02:08.975Z,18.41
2018-07-15T04:03:09.012Z,18.37
2018-07-15T04:04:09.046Z,18.44
2018-07-15T04:05:09.082Z,18.39
2018-07-15T04:06:09.119Z,18.44
2018-07-15T04:07:09.153Z,18.41
2018-07-15T04:08:09.189Z,18.44
2018-07-15T04:09:09.228Z,18.55
2018-07-15T04:10:09.262Z,18.62
2018-07-15T04:11:09.295Z,18.65
2018-07-15T04:12:09.331Z,18.75
2018-07-15T04:13:09.367Z,18.80
2018-07-15T04:14:09.406Z,18.72
2018-07-15T04:15:09.437Z,18.73
2018-07-15T04:16:09.477Z,18.84
2018-07-15T04:17:09.509Z,18.84
2018-07-15T04:18:09.546Z,18.92
2018-07-15T04:19:09.580Z,18.95
2018-07-15T04:20:09.616Z,19.06
2018-07-15T04:21:09.654Z,19.06
2018-07-15T04:22:09.691Z,19.13
2018-07-15T04:23:09.722Z,19.04
2018-07-15T04:24:09.757Z,19.08
2018-07-15T04:25:09.793Z,19.25
2018-07-15T04:26:09.831Z,19.37
2018-07-15T04:27:09.864Z,19.33
2018-07-15T04:28:09.921Z,19.46
2018-07-15T04:29:09.937Z,19.44
2018-07-15T04:30:09.971Z,19.55
2018-07-15T04:31:10.012Z,19.58
2018-07-15T04:32:10.043Z,19.62
2018-07-15T04:33:10.079Z,19.65
2018-07-15T04:34:10.114Z,19.62
2018-07-15T04:35:10.150Z,19.55
2018-07-15T04:36:10.186Z,19.61
2018-07-15T04:37:10.222Z,19.59
2018-07-15T04:38:10.258Z,19.59
2018-07-15T04:39:10.292Z,19.65
2018-07-15T04:40:10.330Z,19.62
2018-07-15T04:41:10.365Z,19.74
2018-07-15T04:42:10.402Z,19.77
2018-07-15T04:43:10.437Z,19.77
2018-07-15T04:44:10.473Z,19.71
2018-07-15T04:45:10.509Z,19.66
2018-07-15T04:46:10.545Z,19.55
2018-07-15T04:47:10.581Z,19.55
2018-07-15T04:48:10.618Z,19.55
2018-07-15T04:49:10.654Z,19.48
2018-07-15T04:50:10.690Z,19.46
2018-07-15T04:51:10.724Z,19.47
2018-07-15T04:52:10.761Z,19.51
2018-07-15T04:53:10.798Z,19.56
2018-07-15T04:54:10.834Z,19.43
2018-07-15T04:55:10.870Z,19.41
2018-07-15T04:56:10.907Z,19.51
2018-07-15T04:57:10.943Z,19.36
2018-07-15T04:58:10.981Z,19.25
2018-07-15T04:59:11.014Z,19.22
2018-07-15T05:00:11.050Z,19.22
2018-07-15T05:01:11.086Z,19.28
2018-07-15T05:02:11.125Z,19.28
2018-07-15T05:03:11.160Z,19.26
2018-07-15T05:04:11.194Z,19.28
2018-07-15T05:05:11.231Z,19.07
2018-07-15T05:06:11.269Z,18.88
2018-07-15T05:07:11.303Z,18.82
2018-07-15T05:08:11.339Z,18.81
2018-07-15T05:09:11.377Z,18.78
2018-07-15T05:10:11.411Z,18.85
2018-07-15T05:11:11.495Z,18.87
2018-07-15T05:12:11.482Z,19.00
2018-07-15T05:13:11.518Z,19.07
2018-07-15T05:14:11.557Z,19.07
2018-07-15T05:15:11.590Z,19.13
2018-07-15T05:16:11.625Z,19.06
2018-07-15T05:17:11.663Z,19.04
2018-07-15T05:18:11.698Z,19.08
2018-07-15T05:19:11.734Z,19.02
2018-07-15T05:20:11.774Z,19.06
2018-07-15T05:21:11.808Z,19.00
2018-07-15T05:22:11.843Z,19.04
2018-07-15T05:23:11.877Z,18.99
2018-07-15T05:24:11.915Z,19.11
2018-07-15T05:25:11.950Z,19.04
2018-07-15T05:26:11.989Z,18.90
2018-07-15T05:27:12.022Z,18.95
2018-07-15T05:28:12.059Z,18.92
2018-07-15T05:29:12.095Z,19.00
2018-07-15T05:30:12.131Z,19.04
2018-07-15T05:31:12.165Z,18.98
2018-07-15T05:32:12.202Z,18.85
2018-07-15T05:33:12.239Z,18.88
2018-07-15T05:34:12.276Z,19.00
2018-07-15T05:35:12.310Z,18.88
2018-07-15T05:36:12.347Z,18.75
2018-07-15T05:37:12.383Z,18.75
2018-07-15T05:38:12.419Z,18.81
2018-07-15T05:39:12.454Z,18.88
2018-07-15T05:40:12.493Z,18.90
2018-07-15T05:41:12.528Z,18.91
2018-07-15T05:42:12.563Z,18.90
2018-07-15T05:43:12.601Z,18.90
2018-07-15T05:44:12.646Z,18.92
2018-07-15T05:45:12.669Z,19.06
2018-07-15T05:46:12.707Z,19.02
2018-07-15T05:47:12.742Z,19.04
2018-07-15T05:48:12.778Z,19.07
2018-07-15T05:49:12.814Z,19.22
2018-07-15T05:50:12.851Z,19.16
2018-07-15T05:51:12.888Z,19.10
2018-07-15T05:52:12.923Z,19.00
2018-07-15T05:53:12.958Z,18.95
2018-07-15T05:54:12.995Z,18.84
2018-07-15T05:55:13.028Z,18.85
2018-07-15T05:56:13.066Z,18.76
2018-07-15T05:57:13.102Z,18.81
2018-07-15T05:58:13.136Z,18.78
2018-07-15T05:59:13.172Z,18.76
2018-07-15T06:00:13.209Z,18.62
2018-07-15T06:01:13.247Z,18.52
2018-07-15T06:02:13.281Z,18.62
2018-07-15T06:03:13.316Z,18.54
2018-07-15T06:04:13.354Z,18.65
2018-07-15T06:05:13.389Z,18.70
2018-07-15T06:06:13.426Z,18.82
2018-07-15T06:07:13.459Z,18.85
2018-07-15T06:08:13.496Z,18.94
2018-07-15T06:09:13.531Z,18.87
2018-07-15T06:10:13.568Z,18.80
2018-07-15T06:11:13.604Z,18.78
2018-07-15T06:12:13.638Z,18.85
2018-07-15T06:13:13.673Z,18.88
2018-07-15T06:14:13.710Z,18.98
2018-07-15T06:15:13.745Z,19.00
2018-07-15T06:16:13.780Z,19.07
2018-07-15T06:17:13.932Z,19.10
2018-07-15T06:18:13.853Z,19.13
2018-07-15T06:19:13.889Z,19.13
2018-07-15T06:20:13.924Z,19.25
2018-07-15T06:21:13.959Z,19.32
2018-07-15T06:22:13.996Z,19.31
2018-07-15T06:23:14.031Z,19.37
2018-07-15T06:24:14.067Z,19.33
2018-07-15T06:25:14.104Z,19.40
2018-07-15T06:26:14.139Z,19.51
2018-07-15T06:27:14.173Z,19.43
2018-07-15T06:28:14.210Z,19.43
2018-07-15T06:29:14.246Z,19.50
2018-07-15T06:30:14.285Z,19.50
2018-07-15T06:31:14.319Z,19.55
2018-07-15T06:32:14.353Z,19.63
2018-07-15T06:33:14.388Z,19.44
2018-07-15T06:34:14.425Z,19.33
2018-07-15T06:35:14.463Z,19.23
2018-07-15T06:36:14.497Z,19.23
2018-07-15T06:37:14.532Z,19.07
2018-07-15T06:38:14.569Z,18.94
2018-07-15T06:39:14.806Z,18.84
2018-07-15T06:40:14.640Z,18.80
2018-07-15T06:41:14.675Z,18.78
2018-07-15T06:42:14.712Z,18.76
2018-07-15T06:43:14.748Z,18.73
2018-07-15T06:44:14.784Z,18.76
2018-07-15T06:45:14.820Z,18.78
2018-07-15T06:46:14.857Z,18.90
2018-07-15T06:47:14.892Z,18.92
2018-07-15T06:48:14.928Z,18.92
2018-07-15T06:49:15.027Z,19.02
2018-07-15T06:50:15.000Z,19.11
2018-07-15T06:51:15.039Z,19.13
2018-07-15T06:52:15.072Z,19.14
2018-07-15T06:53:15.111Z,19.23
2018-07-15T06:54:15.145Z,19.33
2018-07-15T06:55:15.184Z,19.26
2018-07-15T06:56:15.217Z,19.40
2018-07-15T06:57:15.288Z,19.39
2018-07-15T06:58:15.291Z,19.40
2018-07-15T06:59:15.325Z,19.28
2018-07-15T07:00:15.361Z,19.36
2018-07-15T07:01:15.397Z,19.44
2018-07-15T07:02:15.436Z,19.44
2018-07-15T07:03:15.470Z,19.68
2018-07-15T07:04:15.506Z,19.83
2018-07-15T07:05:15.543Z,19.77
2018-07-15T07:06:15.581Z,19.77
2018-07-15T07:07:15.633Z,19.81
2018-07-15T07:08:15.653Z,19.80
2018-07-15T07:09:15.690Z,19.84
2018-07-15T07:10:15.726Z,19.95
2018-07-15T07:11:15.765Z,19.99
2018-07-15T07:12:15.799Z,19.96
2018-07-15T07:13:15.836Z,19.95
2018-07-15T07:14:15.928Z,19.95
2018-07-15T07:15:15.908Z,20.13
2018-07-15T07:16:15.949Z,20.39
2018-07-15T07:17:15.982Z,20.52
2018-07-15T07:18:16.020Z,20.66
2018-07-15T07:19:16.056Z,20.59
2018-07-15T07:20:16.097Z,20.79
2018-07-15T07:21:16.130Z,20.80
2018-07-15T07:22:16.167Z,20.77
2018-07-15T07:23:16.202Z,20.84
2018-07-15T07:24:16.240Z,20.80
2018-07-15T07:25:16.278Z,20.85
2018-07-15T07:26:16.314Z,20.95
2018-07-15T07:27:16.351Z,21.01
2018-07-15T07:28:16.388Z,21.25
2018-07-15T07:29:16.429Z,21.31
2018-07-15T07:30:16.462Z,21.16
2018-07-15T07:31:16.498Z,21.28
2018-07-15T07:32:16.538Z,21.16
2018-07-15T07:33:16.573Z,21.21
2018-07-15T07:34:16.611Z,21.16
2018-07-15T07:35:16.698Z,20.98
2018-07-15T07:36:16.684Z,21.04
2018-07-15T07:37:17.046Z,21.13
2018-07-15T07:38:16.760Z,21.19
2018-07-15T07:39:16.795Z,21.19
2018-07-15T07:40:16.833Z,21.04
2018-07-15T07:41:16.912Z,20.99
2018-07-15T07:42:16.909Z,20.99
2018-07-15T07:43:16.947Z,20.98
2018-07-15T07:44:16.981Z,20.98
2018-07-15T07:45:17.019Z,20.92
2018-07-15T07:46:17.075Z,21.17
2018-07-15T07:47:17.093Z,21.22
2018-07-15T07:48:17.129Z,21.35
2018-07-15T07:49:17.168Z,21.59
2018-07-15T07:50:17.205Z,21.72
2018-07-15T07:51:17.242Z,22.02
2018-07-15T07:52:17.280Z,21.96
2018-07-15T07:53:17.350Z,22.21
2018-07-15T07:54:17.355Z,22.15
2018-07-15T07:55:17.391Z,22.10
2018-07-15T07:57:17.468Z,21.96
2018-07-15T07:58:17.809Z,22.02
2018-07-15T08:00:17.580Z,22.30
2018-07-15T08:01:17.618Z,22.51
2018-07-15T08:02:17.657Z,22.62
2018-07-15T08:03:17.693Z,22.86
2018-07-15T08:04:17.731Z,22.97
2018-07-15T08:05:17.770Z,22.97
2018-07-15T08:06:17.808Z,23.12
2018-07-15T08:07:17.845Z,23.07
2018-07-15T08:08:18.310Z,23.13
2018-07-15T08:09:17.922Z,23.32
2018-07-15T08:10:17.963Z,23.28
2018-07-15T08:11:18.004Z,23.28
2018-07-15T08:13:18.076Z,23.55
2018-07-15T08:14:18.114Z,23.83
2018-07-15T08:15:18.194Z,24.05
2018-07-15T08:16:18.190Z,24.18
2018-07-15T08:17:18.230Z,24.21
2018-07-15T08:21:18.385Z,24.80
2018-07-15T08:23:18.464Z,24.60
2018-07-15T08:24:18.503Z,24.77
2018-07-15T08:25:18.543Z,24.98
2018-07-15T08:26:18.581Z,25.33
2018-07-15T08:27:18.622Z,25.55
2018-07-15T08:28:18.808Z,25.85
2018-07-15T08:29:18.702Z,26.15
2018-07-15T08:30:18.745Z,26.40
2018-07-15T08:31:18.781Z,26.60
2018-07-15T08:32:18.821Z,26.81
2018-07-15T08:33:18.862Z,26.85
2018-07-15T08:35:18.941Z,26.73
2018-07-15T08:36:18.982Z,26.76
2018-07-15T08:37:19.043Z,26.89
2018-07-15T08:38:19.063Z,27.22
2018-07-15T08:39:22.535Z,27.18
2018-07-15T08:40:19.143Z,26.95
2018-07-15T08:41:19.187Z,27.22
2018-07-15T08:42:19.227Z,27.28
2018-07-15T08:43:19.267Z,27.28
2018-07-15T08:44:19.308Z,26.92
2018-07-15T08:45:19.349Z,27.44
2018-07-15T08:46:19.391Z,27.49
2018-07-15T08:47:22.863Z,27.87
2018-07-15T08:48:19.473Z,27.74
2018-07-15T08:49:19.513Z,27.57
2018-07-15T08:50:19.555Z,27.49
2018-07-15T08:51:19.596Z,27.43
2018-07-15T08:52:19.679Z,27.43
2018-07-15T08:53:19.679Z,27.49
2018-07-15T08:54:19.721Z,27.50
2018-07-15T08:55:19.762Z,27.69
2018-07-15T08:56:19.839Z,27.59
2018-07-15T08:57:19.865Z,27.67
2018-07-15T08:58:19.972Z,27.40
2018-07-15T08:59:19.932Z,27.41
2018-07-15T09:00:19.990Z,27.43
2018-07-15T09:01:20.031Z,27.57
2018-07-15T09:02:20.279Z,27.79
2018-07-15T09:03:20.163Z,27.90
2018-07-15T09:04:20.141Z,27.78
2018-07-15T09:05:20.200Z,27.81
2018-07-15T09:06:20.245Z,27.88
2018-07-15T09:09:20.351Z,28.67
2018-07-15T09:10:20.616Z,28.78
2018-07-15T09:11:20.457Z,28.66
2018-07-15T09:12:20.500Z,28.70
2018-07-15T09:14:20.580Z,28.73
2018-07-15T09:15:20.606Z,28.19
2018-07-15T09:16:20.648Z,28.14
2018-07-15T09:17:20.691Z,28.14
2018-07-15T09:18:20.858Z,28.74
2018-07-15T09:19:20.826Z,28.90
2018-07-15T09:20:20.823Z,28.81
2018-07-15T09:21:20.864Z,28.98
2018-07-15T09:22:20.906Z,29.27
2018-07-15T09:23:20.977Z,29.49
2018-07-15T09:24:20.992Z,28.96
2018-07-15T09:25:21.036Z,28.95
2018-07-15T09:26:21.079Z,28.29
2018-07-15T09:27:21.120Z,28.30
2018-07-15T09:28:21.165Z,28.36
2018-07-15T09:29:21.209Z,28.62
2018-07-15T09:30:21.254Z,28.46
2018-07-15T09:31:21.295Z,28.74
2018-07-15T09:32:21.337Z,28.85
2018-07-15T09:33:21.382Z,28.80
2018-07-15T09:34:21.425Z,28.68
2018-07-15T09:35:21.473Z,28.70
2018-07-15T09:36:21.512Z,28.58
2018-07-15T09:37:21.560Z,28.68
2018-07-15T09:38:21.599Z,28.80
2018-07-15T09:39:21.640Z,28.93
2018-07-15T09:40:21.687Z,28.92
2018-07-15T09:41:21.728Z,29.27
2018-07-15T09:42:21.771Z,29.26
2018-07-15T09:43:21.813Z,28.86
2018-07-15T09:44:21.857Z,28.64
2018-07-15T09:45:21.905Z,28.95
2018-07-15T09:46:21.944Z,28.89
2018-07-15T09:47:21.985Z,29.06
2018-07-15T09:48:22.030Z,29.16
2018-07-15T09:49:22.074Z,29.31
2018-07-15T09:50:22.117Z,29.14
2018-07-15T09:51:22.159Z,29.14
2018-07-15T09:52:22.204Z,29.15
2018-07-15T09:53:22.246Z,29.37
2018-07-15T09:54:22.290Z,29.31
2018-07-15T09:55:22.333Z,29.27
2018-07-15T09:56:22.377Z,29.34
2018-07-15T09:57:22.420Z,29.42
2018-07-15T09:58:22.564Z,29.19
2018-07-15T09:59:22.507Z,28.90
2018-07-15T10:00:22.551Z,29.09
2018-07-15T10:01:22.596Z,29.21
2018-07-15T10:02:22.638Z,29.43
2018-07-15T10:03:22.681Z,29.31
2018-07-15T10:04:22.725Z,29.04
2018-07-15T10:05:22.770Z,28.78
2018-07-15T10:06:22.815Z,28.89
2018-07-15T10:07:22.855Z,29.11
2018-07-15T10:08:22.899Z,29.33
2018-07-15T10:09:22.948Z,29.55
2018-07-15T10:10:23.047Z,29.52
2018-07-15T10:11:23.030Z,29.73
2018-07-15T10:12:23.073Z,29.83
2018-07-15T10:13:23.118Z,29.97
2018-07-15T10:14:23.163Z,29.87
2018-07-15T10:15:23.208Z,30.02
2018-07-15T10:16:23.255Z,29.65
2018-07-15T10:17:23.293Z,29.89
2018-07-15T10:18:23.335Z,30.01
2018-07-15T10:19:23.377Z,30.07
2018-07-15T10:20:23.422Z,29.97
2018-07-15T10:21:23.465Z,30.24
2018-07-15T10:22:23.508Z,30.29
2018-07-15T10:23:23.551Z,30.35
2018-07-15T10:24:23.594Z,30.47
2018-07-15T10:25:23.640Z,30.02
2018-07-15T10:26:23.683Z,29.95
2018-07-15T10:27:23.726Z,30.23
2018-07-15T10:28:23.773Z,30.29
2018-07-15T10:29:23.814Z,30.07
2018-07-15T10:30:23.858Z,30.13
2018-07-15T10:31:23.901Z,30.43
2018-07-15T10:32:23.945Z,30.70
2018-07-15T10:33:23.989Z,30.97
2018-07-15T10:34:24.035Z,31.07
2018-07-15T10:35:24.080Z,31.20
2018-07-15T10:36:24.125Z,31.36
2018-07-15T10:37:24.164Z,31.72
2018-07-15T10:38:24.214Z,32.00
2018-07-15T10:39:24.257Z,32.43
2018-07-15T10:40:24.297Z,32.93
2018-07-15T10:41:24.342Z,33.35
2018-07-15T10:42:24.388Z,33.47
2018-07-15T10:43:25.242Z,34.06
2018-07-15T10:44:24.520Z,34.50
2018-07-15T10:45:24.526Z,35.02
2018-07-15T10:46:24.572Z,34.89
2018-07-15T10:47:26.034Z,34.78
2018-07-15T10:48:28.502Z,35.74
2018-07-15T10:49:27.339Z,36.32
2018-07-15T10:50:24.764Z,37.18
2018-07-15T10:52:17.401Z,38.41
2018-07-15T10:53:17.450Z,38.83
2018-07-15T10:54:17.499Z,38.79
2018-07-15T10:55:17.575Z,38.78
2018-07-15T10:56:17.599Z,38.95
2018-07-15T10:57:17.651Z,39.63
2018-07-15T10:58:17.704Z,39.97
2018-07-15T10:59:18.363Z,39.10
2018-07-15T11:00:17.807Z,39.06
2018-07-15T11:01:17.861Z,37.55
2018-07-15T11:02:17.915Z,37.79
2018-07-15T11:03:17.967Z,38.96
2018-07-15T11:04:18.019Z,40.18
2018-07-15T11:05:18.072Z,40.72
2018-07-15T11:06:18.145Z,40.64
2018-07-15T11:07:18.180Z,40.46
2018-07-15T11:08:18.234Z,40.89
2018-07-15T11:09:18.288Z,39.18
2018-07-15T11:10:18.343Z,37.69
2018-07-15T11:11:18.397Z,37.44
2018-07-15T11:12:18.451Z,37.22
2018-07-15T11:13:18.509Z,37.74
2018-07-15T11:14:18.561Z,38.50
2018-07-15T11:15:18.618Z,39.18
2018-07-15T11:16:18.671Z,37.34
2018-07-15T11:17:18.726Z,37.46
2018-07-15T11:18:18.781Z,37.41
2018-07-15T11:19:18.837Z,37.51
2018-07-15T11:20:18.891Z,36.57
2018-07-15T11:21:18.946Z,37.94
2018-07-15T11:22:19.132Z,38.81
2018-07-15T11:23:19.058Z,39.48
2018-07-15T11:24:19.112Z,40.25
2018-07-15T11:25:19.167Z,41.06
2018-07-15T11:26:19.225Z,41.28
2018-07-15T11:27:19.280Z,41.07
2018-07-15T11:28:19.337Z,41.29
2018-07-15T11:29:19.389Z,41.02
2018-07-15T11:30:19.449Z,41.41
2018-07-15T11:31:19.570Z,41.84
2018-07-15T11:32:19.560Z,42.01
2018-07-15T11:33:19.614Z,40.96
2018-07-15T11:34:19.673Z,40.91
2018-07-15T11:35:19.726Z,40.69
2018-07-15T11:36:19.782Z,41.04
2018-07-15T11:37:19.840Z,41.73
2018-07-15T11:38:19.895Z,42.25
2018-07-15T11:39:19.952Z,39.62
2018-07-15T11:40:20.006Z,39.79
2018-07-15T11:41:20.081Z,39.55
2018-07-15T11:42:20.121Z,40.38
2018-07-15T11:43:20.176Z,40.98
2018-07-15T11:44:20.233Z,41.55
2018-07-15T11:45:20.289Z,42.01
2018-07-15T11:46:20.346Z,40.27
2018-07-15T11:47:20.404Z,39.47
2018-07-15T11:48:20.544Z,39.62
2018-07-15T11:49:20.517Z,39.21
2018-07-15T11:50:20.573Z,38.90
2018-07-15T11:51:20.630Z,39.63
2018-07-15T11:52:20.686Z,39.79
2018-07-15T11:53:20.743Z,39.47
2018-07-15T11:54:20.842Z,37.96
2018-07-15T11:55:20.856Z,37.50
2018-07-15T11:56:20.912Z,37.81
2018-07-15T11:57:20.969Z,37.55
2018-07-15T11:58:21.024Z,37.17
2018-07-15T11:59:21.080Z,36.76
2018-07-15T12:00:21.134Z,36.43
2018-07-15T12:01:21.189Z,35.70
2018-07-15T12:02:21.244Z,35.84
2018-07-15T12:03:21.299Z,36.41
2018-07-15T12:04:21.354Z,37.13
2018-07-15T12:05:21.408Z,37.69
2018-07-15T12:06:21.461Z,38.44
2018-07-15T12:07:21.517Z,38.93
2018-07-15T12:08:21.569Z,39.33
2018-07-15T12:09:21.624Z,38.87
2018-07-15T12:10:21.695Z,38.84
2018-07-15T12:11:21.731Z,38.74
2018-07-15T12:12:21.784Z,39.29
2018-07-15T12:13:21.836Z,40.19
2018-07-15T12:14:21.891Z,40.35
2018-07-15T12:15:21.945Z,40.55
2018-07-15T12:16:21.999Z,40.98
2018-07-15T12:17:22.054Z,41.10
2018-07-15T12:18:22.107Z,41.44
2018-07-15T12:19:22.161Z,41.64
2018-07-15T12:20:22.235Z,42.27
2018-07-15T12:21:22.275Z,42.02
2018-07-15T12:22:22.325Z,41.55
2018-07-15T12:23:22.388Z,41.82
2018-07-15T12:24:22.433Z,41.62
2018-07-15T12:25:22.488Z,41.49
2018-07-15T12:26:22.544Z,40.61
2018-07-15T12:27:22.600Z,39.85
2018-07-15T12:28:22.786Z,38.68
2018-07-15T12:29:22.709Z,38.46
2018-07-15T12:30:22.763Z,38.71
2018-07-15T12:31:22.818Z,39.38
2018-07-15T12:32:22.872Z,38.93
2018-07-15T12:33:22.929Z,39.01
2018-07-15T12:34:22.984Z,38.57
2018-07-15T12:35:23.096Z,38.40
2018-07-15T12:36:23.089Z,38.61
2018-07-15T12:37:23.143Z,39.18
2018-07-15T12:38:23.196Z,39.86
2018-07-15T12:39:23.250Z,39.57
2018-07-15T12:40:23.309Z,39.16
2018-07-15T12:41:23.359Z,38.59
2018-07-15T12:42:23.414Z,38.63
2018-07-15T12:43:23.470Z,38.59
2018-07-15T12:44:23.521Z,38.23
2018-07-15T12:45:23.576Z,37.94
2018-07-15T12:46:23.633Z,38.41
2018-07-15T12:47:23.684Z,38.03
2018-07-15T12:48:23.738Z,37.97
2018-07-15T12:49:23.791Z,37.46
2018-07-15T12:50:23.848Z,37.62
2018-07-15T12:51:23.898Z,36.57
2018-07-15T12:52:23.951Z,35.21
2018-07-15T12:53:24.008Z,34.96
2018-07-15T12:54:24.057Z,35.28
2018-07-15T12:55:26.795Z,35.25
2018-07-15T12:56:24.162Z,35.03
2018-07-15T12:57:24.215Z,35.19
2018-07-15T12:58:24.265Z,35.28
2018-07-15T12:59:24.319Z,34.97
2018-07-15T13:00:24.368Z,34.17
2018-07-15T13:01:24.481Z,34.03
2018-07-15T13:02:24.471Z,33.93
2018-07-15T13:03:24.540Z,34.17
2018-07-15T13:05:28.661Z,34.03
2018-07-15T13:06:24.673Z,34.05
2018-07-15T13:07:24.723Z,33.42
2018-07-15T13:08:24.772Z,33.07
2018-07-15T13:09:24.820Z,32.92